Time;durP1;ratioP1;P1;durP2;ratioP2;P2;SDS_P1;SDS_P2;PMS_P1;PMS_P2;Temp;Humidity;BMP_temperature;BMP_pressure;BME280_temperature;BME280_humidity;BME280_pressure;Samples;Min_cycle;Max_cycle;Signal;HPM_P1;HPM_P2
2021/07/07 07:18:08;;;;;;;672.35;631.30;;;;;;;;;;5070975;28;20538;-68
2021/07/07 07:20:34;;;;;;;753.25;705.83;;;17.50;99.90;;;;;;5071024;28;20183;-68
2021/07/07 07:23:00;;;;;;;803.25;751.65;;;17.50;99.90;;;;;;5069758;28;20914;-68
2021/07/07 07:25:27;;;;;;;852.78;796.90;;;17.50;99.90;;;;;;5070993;28;20541;-68
2021/07/07 07:27:54;;;;;;;908.70;846.97;;;17.60;99.90;;;;;;5070850;28;20172;-68
2021/07/07 07:30:20;;;;;;;952.03;885.78;;;17.70;99.90;;;;;;5071029;28;20186;-68
2021/07/07 07:32:48;;;;;;;971.47;901.33;;;17.70;99.90;;;;;;5070863;28;20255;-68
2021/07/07 07:35:18;;;;;;;1015.70;940.53;;;17.70;99.90;;;;;;5070756;28;20176;-68
2021/07/07 07:40:34;;;;;;;1020.53;944.67;;;17.70;99.90;;;;;;5070639;28;20554;-68
2021/07/07 07:43:00;;;;;;;1033.10;954.92;;;17.70;99.90;;;;;;5070736;28;20168;-68
2021/07/07 07:45:25;;;;;;;1055.47;974.45;;;17.60;99.90;;;;;;5070406;28;20165;-68
2021/07/07 07:47:51;;;;;;;1062.32;981.03;;;17.60;99.90;;;;;;5070277;28;20196;-68
2021/07/07 07:50:17;;;;;;;1030.82;954.60;;;17.60;99.90;;;;;;5070406;28;20251;-68
2021/07/07 07:52:44;;;;;;;1045.80;966.80;;;17.50;99.90;;;;;;5070344;28;20164;-68
2021/07/07 07:55:10;;;;;;;1073.30;988.17;;;17.60;99.90;;;;;;5069191;28;20674;-68
2021/07/07 07:57:38;;;;;;;1077.15;988.92;;;17.70;99.90;;;;;;5070132;28;20211;-68
2021/07/07 08:00:19;;;;;;;1113.38;999.90;;;17.80;99.90;;;;;;5070172;28;20168;-66
2021/07/07 08:02:45;;;;;;;1106.05;999.45;;;17.90;99.90;;;;;;5070432;28;20164;-66
2021/07/07 08:05:11;;;;;;;1134.93;999.90;;;17.90;99.90;;;;;;5070193;28;20579;-66
2021/07/07 08:07:38;;;;;;;1077.55;990.92;;;18.00;99.90;;;;;;5070016;28;20656;-66
2021/07/07 08:10:05;;;;;;;1098.45;997.67;;;18.00;99.90;;;;;;5070041;28;20222;-66
2021/07/07 08:12:30;;;;;;;1090.55;996.67;;;18.00;99.90;;;;;;5069724;28;20263;-66
2021/07/07 08:14:57;;;;;;;1095.25;997.35;;;18.00;99.90;;;;;;5069804;28;20248;-66
2021/07/07 08:17:22;;;;;;;1084.70;993.63;;;18.00;99.90;;;;;;5069699;28;20225;-66
2021/07/07 08:19:49;;;;;;;1102.43;998.78;;;18.10;99.90;;;;;;5069783;28;20165;-66
2021/07/07 08:22:16;;;;;;;1076.40;990.22;;;18.10;99.90;;;;;;5069756;28;20522;-66
2021/07/07 08:46:19;;;;;;;640.25;601.85;;;18.50;99.90;;;;;;5111628;27;20454;-67
2021/07/07 08:48:45;;;;;;;704.30;660.70;;;18.30;99.90;;;;;;5111695;28;20542;-68
2021/07/07 08:51:10;;;;;;;744.60;697.58;;;18.30;99.90;;;;;;5111654;28;20705;-68
2021/07/07 08:53:36;;;;;;;785.92;735.45;;;18.40;99.90;;;;;;5111566;28;20178;-67
2021/07/07 08:56:02;;;;;;;840.45;784.75;;;18.40;99.90;;;;;;5111478;28;20628;-68
2021/07/07 08:58:28;;;;;;;865.95;807.75;;;18.40;99.90;;;;;;5111300;28;20220;-68
2021/07/07 09:00:58;;;;;;;872.13;812.05;;;18.50;99.90;;;;;;5111262;28;20203;-67
2021/07/07 09:03:23;;;;;;;849.30;791.75;;;18.60;99.90;;;;;;5111337;28;20704;-68
2021/07/07 09:05:54;;;;;;;917.40;851.88;;;18.70;99.90;;;;;;5111067;28;20297;-68
2021/07/07 09:08:32;;;;;;;927.97;861.97;;;18.80;99.90;;;;;;5111134;28;20674;-68
2021/07/07 09:11:17;;;;;;;951.33;881.88;;;18.90;99.90;;;;;;5111232;28;20250;-68
2021/07/07 09:13:44;;;;;;;930.10;863.30;;;18.90;99.90;;;;;;5109979;28;20208;-67
2021/07/07 09:16:11;;;;;;;926.85;859.38;;;18.90;99.90;;;;;;5109755;28;20175;-68
2021/07/07 09:18:37;;;;;;;904.00;838.90;;;18.90;99.90;;;;;;5111180;28;20163;-67
2021/07/07 09:21:06;;;;;;;941.28;872.65;;;19.10;99.90;;;;;;5110841;28;20632;-68
2021/07/07 09:23:32;;;;;;;933.85;865.38;;;18.90;99.90;;;;;;5110853;28;20198;-68
2021/07/07 09:26:00;;;;;;;895.13;831.05;;;19.20;99.90;;;;;;5109501;28;20226;-68
2021/07/07 09:28:29;;;;;;;902.47;838.05;;;19.10;99.90;;;;;;5111047;28;20254;-68
2021/07/07 09:31:00;;;;;;;925.85;858.63;;;19.10;99.90;;;;;;5090399;28;20171;-68
2021/07/07 09:33:26;;;;;;;924.70;857.38;;;19.20;99.90;;;;;;5090434;28;20606;-68
2021/07/07 09:36:12;;;;;;;951.38;881.08;;;19.30;99.90;;;;;;5089193;28;20224;-68
2021/07/07 09:38:41;;;;;;;929.38;861.63;;;19.40;99.90;;;;;;5090104;28;20237;-68
2021/07/07 09:41:11;;;;;;;1006.53;930.30;;;19.20;99.90;;;;;;5090235;28;20175;-68
2021/07/07 09:43:45;;;;;;;1008.90;933.60;;;20.10;99.90;;;;;;5090228;28;20216;-68
2021/07/07 09:46:11;;;;;;;1043.82;963.58;;;19.90;99.90;;;;;;5089898;28;20258;-68
2021/07/07 09:48:37;;;;;;;1025.78;948.17;;;20.40;99.90;;;;;;5089917;28;20195;-68
2021/07/07 09:51:03;;;;;;;1062.45;980.25;;;20.60;99.90;;;;;;5089973;28;20171;-68
2021/07/07 09:53:29;;;;;;;1065.72;982.00;;;20.30;99.90;;;;;;5090012;28;20515;-68
2021/07/07 09:55:55;;;;;;;1063.25;979.40;;;20.30;99.90;;;;;;5086441;28;20179;-68
2021/07/07 09:58:22;;;;;;;1013.75;939.05;;;20.30;99.90;;;;;;5076415;28;20186;-68
2021/07/07 10:00:47;;;;;;;995.40;922.97;;;20.30;99.90;;;;;;5076476;28;20696;-68
2021/07/07 10:03:13;;;;;;;993.40;921.42;;;20.40;99.90;;;;;;5076305;28;20214;-68
2021/07/07 10:05:40;;;;;;;983.38;911.80;;;20.40;99.90;;;;;;5076109;28;20203;-68
2021/07/07 10:08:08;;;;;;;1015.53;939.92;;;20.30;99.90;;;;;;5076230;28;20171;-68
2021/07/07 10:10:35;;;;;;;1035.32;958.53;;;20.40;99.90;;;;;;5076213;28;20160;-68
2021/07/07 10:13:01;;;;;;;1041.18;962.85;;;20.50;99.90;;;;;;5076057;28;20191;-68
2021/07/07 10:15:28;;;;;;;1059.05;977.35;;;20.60;99.90;;;;;;5076064;28;20251;-68
2021/07/07 10:17:54;;;;;;;1044.05;965.47;;;20.70;99.90;;;;;;5076235;28;20183;-68
2021/07/07 10:20:20;;;;;;;904.55;844.88;;;20.70;99.90;;;;;;5076092;28;20566;-68
2021/07/07 10:22:45;;;;;;;828.10;774.20;;;20.80;99.90;;;;;;5075963;28;20246;-68
2021/07/07 10:25:18;;;;;;;1069.82;986.35;;;20.70;99.90;;;;;;5075767;28;20203;-68
2021/07/07 10:27:45;;;;;;;1051.55;970.65;;;20.20;99.90;;;;;;5075782;28;20171;-68
2021/07/07 10:30:12;;;;;;;1043.35;964.40;;;23.00;99.90;;;;;;5075913;28;20211;-68
2021/07/07 10:32:37;;;;;;;984.25;913.90;;;21.00;99.90;;;;;;5074642;28;20226;-68
2021/07/07 10:35:09;;;;;;;996.67;924.63;;;22.10;99.90;;;;;;5075882;28;20195;-67
2021/07/07 10:37:36;;;;;;;1058.22;977.40;;;20.80;99.90;;;;;;5075736;28;20171;-67
2021/07/07 10:40:27;;;;;;;1068.00;986.40;;;20.80;99.90;;;;;;5075613;28;20194;-67
2021/07/07 10:42:53;;;;;;;1060.18;979.10;;;20.80;99.90;;;;;;5075469;28;20164;-67
2021/07/07 10:45:41;;;;;;;1063.13;982.75;;;20.80;99.90;;;;;;5075297;28;20644;-68
2021/07/07 10:48:25;;;;;;;993.97;921.75;;;21.50;99.90;;;;;;5075376;28;20167;-68
2021/07/07 10:50:57;;;;;;;1062.82;981.50;;;21.60;99.90;;;;;;5075319;28;20198;-68
2021/07/07 10:53:30;;;;;;;1086.03;997.60;;;21.40;99.90;;;;;;5074208;28;20171;-68
2021/07/07 10:55:57;;;;;;;1061.55;979.70;;;21.50;99.90;;;;;;5075393;28;20172;-68
2021/07/07 10:58:28;;;;;;;1068.32;984.35;;;21.50;99.90;;;;;;5075205;28;20164;-68
2021/07/07 11:00:53;;;;;;;1014.47;937.97;;;21.50;99.90;;;;;;5075194;28;20168;-68
2021/07/07 11:03:36;;;;;;;966.45;897.45;;;21.40;99.90;;;;;;5075308;28;20510;-68
2021/07/07 11:06:21;;;;;;;955.63;887.28;;;21.30;99.90;;;;;;5075147;28;20202;-67
2021/07/07 11:08:48;;;;;;;1061.80;979.05;;;21.20;99.90;;;;;;5074135;28;20160;-68
2021/07/07 11:11:25;;;;;;;1045.13;964.53;;;21.20;99.90;;;;;;5075109;28;20160;-68
2021/07/07 11:13:55;;;;;;;1010.03;935.47;;;21.30;99.90;;;;;;5074958;28;20171;-68
2021/07/07 11:16:22;;;;;;;947.15;880.35;;;21.50;99.90;;;;;;5074918;28;20581;-67
2021/07/07 11:18:49;;;;;;;901.88;840.95;;;21.60;99.90;;;;;;5074945;28;20167;-68
2021/07/07 11:21:16;;;;;;;823.45;769.97;;;21.70;99.90;;;;;;5074754;28;20207;-68
2021/07/07 11:23:42;;;;;;;839.30;782.72;;;21.80;99.90;;;;;;5073641;28;20221;-68
2021/07/07 11:26:09;;;;;;;821.92;768.83;;;21.90;99.90;;;;;;5074492;28;20680;-68
2021/07/07 11:28:35;;;;;;;756.92;709.60;;;21.90;99.90;;;;;;5074547;28;20164;-67
2021/07/07 11:31:01;;;;;;;773.17;724.05;;;21.80;99.90;;;;;;5074823;28;20167;-68
2021/07/07 11:33:27;;;;;;;736.88;691.05;;;21.70;99.90;;;;;;5074684;28;20164;-67
2021/07/07 11:35:54;;;;;;;720.25;676.10;;;21.70;99.90;;;;;;5074579;28;20163;-67
2021/07/07 11:38:22;;;;;;;649.58;610.75;;;21.70;99.90;;;;;;5074492;28;20199;-67
2021/07/07 11:40:52;;;;;;;654.25;615.47;;;21.70;99.90;;;;;;5074606;28;20791;-68
2021/07/07 11:43:24;;;;;;;610.67;575.08;;;21.80;99.90;;;;;;5074473;28;20241;-68
2021/07/07 11:46:03;;;;;;;599.92;565.40;;;21.80;99.90;;;;;;5074116;28;20215;-68
2021/07/07 11:48:37;;;;;;;595.03;560.55;;;21.70;99.90;;;;;;5074316;28;20156;-68
2021/07/07 11:51:13;;;;;;;619.67;583.30;;;21.60;99.90;;;;;;5073032;28;20167;-68
2021/07/07 11:53:49;;;;;;;606.92;572.13;;;21.60;99.90;;;;;;5074336;28;20194;-68
2021/07/07 11:56:22;;;;;;;615.17;579.03;;;21.50;99.90;;;;;;5074384;28;20228;-68
2021/07/07 11:58:58;;;;;;;643.47;605.45;;;21.60;99.90;;;;;;5074052;28;20193;-68
2021/07/07 12:01:31;;;;;;;638.50;600.55;;;21.80;99.90;;;;;;5074013;28;20198;-67
2021/07/07 12:04:00;;;;;;;611.25;575.17;;;21.80;99.90;;;;;;5074026;28;20195;-68
2021/07/07 12:06:42;;;;;;;572.83;540.88;;;21.90;99.90;;;;;;5074066;28;20179;-67
2021/07/07 12:09:17;;;;;;;631.50;594.58;;;21.90;99.90;;;;;;5073941;28;20167;-67
2021/07/07 12:11:58;;;;;;;634.97;597.47;;;21.90;99.90;;;;;;5074064;28;20198;-68
2021/07/07 12:14:26;;;;;;;543.75;513.78;;;22.00;99.90;;;;;;5074000;28;20182;-67
2021/07/07 12:16:53;;;;;;;608.90;573.90;;;22.10;99.90;;;;;;5073856;28;20252;-68
2021/07/07 12:19:19;;;;;;;585.28;551.85;;;22.10;99.90;;;;;;5073624;28;20694;-68
2021/07/07 12:21:59;;;;;;;639.10;600.92;;;22.10;99.90;;;;;;5073797;28;20632;-67
2021/07/07 12:24:25;;;;;;;627.33;590.40;;;22.10;99.90;;;;;;5073721;28;20180;-67
2021/07/07 12:27:00;;;;;;;644.95;606.63;;;22.10;99.90;;;;;;5073946;28;20233;-68
2021/07/07 12:29:28;;;;;;;684.72;643.35;;;22.20;99.90;;;;;;5073837;28;20183;-67
2021/07/07 12:32:27;;;;;;;671.92;631.30;;;22.50;99.90;;;;;;5073744;28;20163;-68
2021/07/07 12:34:56;;;;;;;495.17;468.92;;;22.80;99.90;;;;;;5072662;28;20207;-68
2021/07/07 12:37:23;;;;;;;491.55;465.77;;;23.00;99.90;;;;;;5073472;28;20641;-68
2021/07/07 12:39:54;;;;;;;446.05;423.88;;;23.10;99.90;;;;;;5073610;28;20199;-67
2021/07/07 12:42:35;;;;;;;498.98;472.88;;;23.10;99.90;;;;;;5073698;28;20617;-67
2021/07/07 12:45:07;;;;;;;553.88;523.45;;;23.10;99.90;;;;;;5073597;28;20571;-67
2021/07/07 12:47:33;;;;;;;415.77;395.30;;;23.30;99.90;;;;;;5073537;28;20175;-67
2021/07/07 12:49:59;;;;;;;475.67;451.50;;;23.50;99.90;;;;;;5073427;28;20511;-68
2021/07/07 12:52:26;;;;;;;378.33;360.50;;;23.70;99.90;;;;;;5073459;28;20163;-68
2021/07/07 12:55:01;;;;;;;303.02;289.08;;;23.90;99.90;;;;;;5073495;28;20252;-68
2021/07/07 12:57:55;;;;;;;437.88;416.05;;;24.00;99.90;;;;;;5073420;28;20644;-68
2021/07/07 13:00:38;;;;;;;449.48;426.90;;;24.00;99.90;;;;;;5071063;28;20225;-68
2021/07/07 13:03:09;;;;;;;466.65;443.00;;;23.80;99.90;;;;;;5073457;28;20208;-67
2021/07/07 13:05:41;;;;;;;494.42;468.58;;;23.60;99.90;;;;;;5073319;28;20168;-67
2021/07/07 13:08:09;;;;;;;585.35;552.53;;;23.30;99.90;;;;;;5073303;28;20172;-68
2021/07/07 13:10:43;;;;;;;661.15;622.45;;;23.20;99.90;;;;;;5073192;28;20171;-68
2021/07/07 13:13:19;;;;;;;511.30;484.60;;;23.30;99.90;;;;;;5073269;28;20167;-68
2021/07/07 13:16:21;;;;;;;549.83;520.20;;;23.50;99.90;;;;;;5073428;28;20195;-68
2021/07/07 13:19:05;;;;;;;546.13;516.65;;;23.60;99.90;;;;;;5073417;28;20236;-67
2021/07/07 13:21:31;;;;;;;647.72;609.53;;;23.40;99.90;;;;;;5073244;28;20551;-68
2021/07/07 13:23:58;;;;;;;641.22;603.85;;;23.40;99.90;;;;;;5073350;28;20168;-67
2021/07/07 13:26:26;;;;;;;612.70;577.75;;;23.30;99.90;;;;;;5073255;28;20255;-68
2021/07/07 13:29:13;;;;;;;592.03;558.92;;;23.20;99.90;;;;;;5073136;28;20230;-68
2021/07/07 13:31:38;;;;;;;657.22;618.42;;;23.10;99.90;;;;;;5074457;28;20255;-67
2021/07/07 13:34:05;;;;;;;639.90;602.53;;;23.00;99.90;;;;;;5077082;28;20203;-68
2021/07/07 13:36:37;;;;;;;581.80;549.20;;;22.90;99.90;;;;;;5076718;28;20203;-67
2021/07/07 13:39:10;;;;;;;648.70;610.80;;;23.10;99.90;;;;;;5077008;28;20192;-68
2021/07/07 13:41:39;;;;;;;490.10;464.83;;;23.50;99.90;;;;;;5076688;28;20160;-68
2021/07/07 13:44:05;;;;;;;389.58;370.98;;;23.60;99.90;;;;;;5076371;28;20164;-68
2021/07/07 13:46:32;;;;;;;262.98;250.65;;;23.50;99.90;;;;;;5076640;28;20175;-67
2021/07/07 13:48:58;;;;;;;467.98;443.65;;;23.20;99.90;;;;;;5076660;28;20568;-67
2021/07/07 13:51:24;;;;;;;636.78;599.83;;;23.00;99.90;;;;;;5076666;28;20648;-67
2021/07/07 13:53:50;;;;;;;669.78;629.97;;;22.90;99.90;;;;;;5076526;28;20172;-68
2021/07/07 13:56:15;;;;;;;667.75;628.13;;;22.80;99.90;;;;;;5076549;28;20202;-68
2021/07/07 13:58:41;;;;;;;601.85;567.72;;;22.70;99.90;;;;;;5076414;28;20621;-68
2021/07/07 14:01:07;;;;;;;602.08;567.72;;;22.60;99.90;;;;;;5076283;28;20183;-67
2021/07/07 14:03:33;;;;;;;583.00;550.55;;;22.40;99.90;;;;;;5076436;28;20168;-67
2021/07/07 14:05:59;;;;;;;606.50;571.92;;;22.20;99.90;;;;;;5075418;28;20167;-67
2021/07/07 14:08:24;;;;;;;569.83;538.38;;;22.10;99.90;;;;;;5076232;28;20242;-67
2021/07/07 14:10:50;;;;;;;584.70;551.92;;;22.00;99.90;;;;;;5076121;28;20176;-67
2021/07/07 14:13:16;;;;;;;606.47;571.78;;;21.90;99.90;;;;;;5076089;28;20500;-67
2021/07/07 14:15:42;;;;;;;587.85;554.67;;;21.90;99.90;;;;;;5076108;28;20652;-67
2021/07/07 14:18:08;;;;;;;608.78;573.63;;;21.90;99.90;;;;;;5076061;28;20175;-67
2021/07/07 14:20:34;;;;;;;630.97;594.00;;;21.90;99.90;;;;;;5076074;28;20168;-67
2021/07/07 14:23:00;;;;;;;597.22;562.42;;;21.90;99.90;;;;;;5076245;28;20494;-67
2021/07/07 14:25:26;;;;;;;655.00;615.65;;;21.90;99.90;;;;;;5075950;28;20583;-67
2021/07/07 14:27:51;;;;;;;675.30;634.38;;;22.00;99.90;;;;;;5074614;28;20203;-67
2021/07/07 14:30:17;;;;;;;658.15;618.65;;;22.10;99.90;;;;;;5075829;28;20199;-67
2021/07/07 14:32:45;;;;;;;710.53;666.85;;;22.30;99.90;;;;;;5075828;28;20183;-67
2021/07/07 14:35:11;;;;;;;647.88;609.00;;;22.40;99.90;;;;;;5075739;28;20230;-68
2021/07/07 14:37:37;;;;;;;682.95;641.67;;;22.50;99.90;;;;;;5075742;28;20542;-68
2021/07/07 14:40:04;;;;;;;708.45;665.50;;;22.60;99.90;;;;;;5074527;28;20743;-68
2021/07/07 14:42:29;;;;;;;682.13;641.15;;;22.80;99.90;;;;;;5074367;28;20172;-68
2021/07/07 14:44:55;;;;;;;717.78;674.05;;;23.00;99.90;;;;;;5075378;28;20222;-68
2021/07/07 14:47:21;;;;;;;669.80;629.88;;;23.30;99.90;;;;;;5075479;28;20299;-68
2021/07/07 14:49:46;;;;;;;690.80;649.72;;;23.70;99.90;;;;;;5075454;28;20168;-68
2021/07/07 14:52:12;;;;;;;593.88;560.75;;;24.00;99.90;;;;;;5075496;28;20546;-68
2021/07/07 14:54:37;;;;;;;638.38;601.40;;;24.10;99.90;;;;;;5075343;28;20188;-68
2021/07/07 14:57:04;;;;;;;613.47;578.47;;;24.40;99.90;;;;;;5074186;28;20207;-68
2021/07/07 14:59:34;;;;;;;540.30;511.13;;;24.60;99.90;;;;;;5075320;28;20172;-68
2021/07/07 15:02:00;;;;;;;479.05;454.33;;;24.70;99.90;;;;;;5075262;28;20657;-68
2021/07/07 15:04:25;;;;;;;577.22;545.33;;;24.50;99.90;;;;;;5073905;28;20214;-68
2021/07/07 15:06:51;;;;;;;478.80;454.33;;;24.60;99.90;;;;;;5075115;28;20229;-68
2021/07/07 15:09:16;;;;;;;425.98;404.77;;;24.60;99.90;;;;;;5075017;28;20176;-68
2021/07/07 15:11:42;;;;;;;498.92;473.02;;;24.60;99.90;;;;;;5075010;28;20178;-68
2021/07/07 15:14:07;;;;;;;542.90;513.53;;;24.70;99.90;;;;;;5074932;28;20168;-68
2021/07/07 15:16:34;;;;;;;302.25;288.05;;;24.90;99.90;;;;;;5074724;28;20625;-68
2021/07/07 15:19:01;;;;;;;325.35;310.02;;;25.10;99.90;;;;;;5074849;28;20298;-68
2021/07/07 15:21:27;;;;;;;407.05;387.02;;;25.00;99.90;;;;;;5074820;28;20205;-68
2021/07/07 15:23:53;;;;;;;260.52;248.43;;;24.80;99.90;;;;;;5074729;28;20522;-68
2021/07/07 15:26:20;;;;;;;396.30;376.85;;;24.60;99.90;;;;;;5074771;28;20179;-68
2021/07/07 15:28:48;;;;;;;513.25;485.83;;;24.40;99.90;;;;;;5073569;28;20258;-68
2021/07/07 15:31:14;;;;;;;620.50;585.05;;;24.20;99.90;;;;;;5074583;28;20168;-67
2021/07/07 15:33:39;;;;;;;614.10;578.13;;;24.10;99.90;;;;;;5074624;28;20171;-68
2021/07/07 15:36:05;;;;;;;600.83;567.05;;;23.90;99.90;;;;;;5074428;28;20206;-68
2021/07/07 15:38:32;;;;;;;604.95;570.50;;;23.80;99.90;;;;;;5074602;28;20179;-68
2021/07/07 15:40:59;;;;;;;627.60;591.45;;;23.70;99.90;;;;;;5074421;28;20533;-67
2021/07/07 15:43:25;;;;;;;565.25;534.35;;;23.50;99.90;;;;;;5074561;28;20167;-68
2021/07/07 15:45:50;;;;;;;708.35;665.83;;;23.30;99.90;;;;;;5074126;28;20230;-67
2021/07/07 15:48:16;;;;;;;662.75;623.22;;;23.10;99.90;;;;;;5074199;28;20502;-67
2021/07/07 15:50:42;;;;;;;615.70;580.53;;;23.00;99.90;;;;;;5073111;28;20193;-67
2021/07/07 15:53:07;;;;;;;692.58;651.03;;;22.90;99.90;;;;;;5074251;28;20179;-67
2021/07/07 15:55:33;;;;;;;726.65;682.80;;;22.90;99.90;;;;;;5073543;28;20253;-67
2021/07/07 15:57:58;;;;;;;770.45;722.95;;;22.90;99.90;;;;;;5074106;28;20164;-67
2021/07/07 16:00:24;;;;;;;646.40;608.67;;;23.00;99.90;;;;;;5074285;28;20164;-67
2021/07/07 16:02:50;;;;;;;677.45;637.17;;;23.00;99.90;;;;;;5074097;28;20167;-67
2021/07/07 16:05:15;;;;;;;764.78;717.95;;;23.00;99.90;;;;;;5073979;28;20167;-68
2021/07/07 16:07:41;;;;;;;777.38;729.38;;;23.00;99.90;;;;;;5072821;28;20182;-68
2021/07/07 16:10:08;;;;;;;747.03;701.35;;;23.00;99.90;;;;;;5073960;28;20168;-67
2021/07/07 16:12:34;;;;;;;729.45;685.38;;;23.10;99.90;;;;;;5073873;28;20164;-68
2021/07/07 16:15:00;;;;;;;746.88;701.28;;;23.10;99.90;;;;;;5073908;28;20187;-67
2021/07/07 16:17:27;;;;;;;728.90;685.05;;;23.10;99.90;;;;;;5073775;28;20159;-68
2021/07/07 16:19:53;;;;;;;738.88;694.10;;;23.00;99.90;;;;;;5073614;28;20222;-68
2021/07/07 16:22:18;;;;;;;774.17;726.53;;;23.00;99.90;;;;;;5073537;28;20271;-68
2021/07/07 16:24:44;;;;;;;712.10;668.90;;;22.80;99.90;;;;;;5073644;28;20172;-67
2021/07/07 16:27:09;;;;;;;753.88;707.28;;;22.70;99.90;;;;;;5073526;28;20168;-68
2021/07/07 16:29:35;;;;;;;709.42;666.20;;;22.60;99.90;;;;;;5073615;28;20196;-67
2021/07/07 16:32:01;;;;;;;722.40;678.35;;;22.40;99.90;;;;;;5073634;28;20625;-67
2021/07/07 16:34:26;;;;;;;726.97;682.40;;;22.30;99.90;;;;;;5073501;28;20168;-68
2021/07/07 16:36:52;;;;;;;739.38;693.67;;;22.20;99.90;;;;;;5073505;28;20199;-68
2021/07/07 16:39:17;;;;;;;807.58;756.13;;;22.10;99.90;;;;;;5073593;28;20225;-67
2021/07/07 16:41:43;;;;;;;821.58;768.92;;;22.10;99.90;;;;;;5073578;28;20164;-68
2021/07/07 16:44:08;;;;;;;791.38;741.00;;;22.10;99.90;;;;;;5073427;28;20172;-67
2021/07/07 16:46:34;;;;;;;767.20;718.97;;;22.00;99.90;;;;;;5073562;28;20522;-67
2021/07/07 16:49:00;;;;;;;766.28;718.10;;;22.00;99.90;;;;;;5073675;28;20168;-67
2021/07/07 16:51:25;;;;;;;790.60;740.47;;;21.90;99.90;;;;;;5073515;28;20620;-67
2021/07/07 16:53:51;;;;;;;803.65;752.55;;;21.90;99.90;;;;;;5073095;28;20537;-67
2021/07/07 16:56:17;;;;;;;712.22;668.42;;;21.80;99.90;;;;;;5072909;28;20192;-68
2021/07/07 16:58:43;;;;;;;822.05;769.42;;;21.70;99.90;;;;;;5073440;28;20187;-70
2021/07/07 17:01:09;;;;;;;824.63;771.42;;;21.70;99.90;;;;;;5073377;28;20586;-68
2021/07/07 17:03:35;;;;;;;819.63;767.00;;;21.60;99.90;;;;;;5073214;28;20195;-68
2021/07/07 17:06:00;;;;;;;811.65;759.58;;;21.60;99.90;;;;;;5073645;28;20633;-68
2021/07/07 17:23:45;;;;;;;691.35;648.25;;;21.40;99.90;;;;;;5070992;28;20592;-67
2021/07/07 17:26:11;;;;;;;723.08;678.67;;;21.40;99.90;;;;;;5071041;28;20168;-67
2021/07/07 17:28:39;;;;;;;764.03;717.28;;;21.50;99.90;;;;;;5071142;28;20175;-67
2021/07/07 17:31:06;;;;;;;734.25;689.10;;;21.50;99.90;;;;;;5070656;28;20720;-67
2021/07/07 17:33:31;;;;;;;774.03;725.08;;;21.50;99.90;;;;;;5070988;28;20574;-68
2021/07/07 18:21:12;;;;;;;503.98;477.15;;;20.50;99.90;;;;;;5071043;28;21113;-68
2021/07/07 18:23:38;;;;;;;667.30;627.60;;;20.50;99.90;;;;;;5071072;28;20168;-68
2021/07/07 18:26:03;;;;;;;761.42;715.38;;;20.50;99.90;;;;;;5070875;28;20516;-68
2021/07/07 18:28:29;;;;;;;760.55;715.25;;;20.50;99.90;;;;;;5070699;28;20164;-68
2021/07/07 18:30:55;;;;;;;866.38;812.45;;;20.50;99.90;;;;;;5070769;28;20645;-68
2021/07/07 18:33:21;;;;;;;897.22;840.38;;;20.50;99.90;;;;;;5070882;28;20179;-66
2021/07/07 18:35:47;;;;;;;915.78;856.92;;;20.50;99.90;;;;;;5070660;28;20168;-66
2021/07/07 18:38:12;;;;;;;951.17;888.92;;;20.50;99.90;;;;;;5070851;28;20172;-66
2021/07/07 18:40:40;;;;;;;890.08;833.65;;;20.70;99.90;;;;;;5070628;28;20207;-66
2021/07/07 18:43:05;;;;;;;884.55;828.22;;;20.90;99.90;;;;;;5070301;28;20187;-66
2021/07/07 18:45:32;;;;;;;1017.95;945.05;;;21.30;99.90;;;;;;5070597;28;20191;-67
2021/07/07 18:47:58;;;;;;;1039.45;962.55;;;21.60;99.90;;;;;;5070484;28;20522;-67
2021/07/07 18:50:25;;;;;;;1022.33;947.03;;;21.90;99.90;;;;;;5070328;28;20167;-67
2021/07/07 18:52:51;;;;;;;1047.25;968.42;;;21.80;99.90;;;;;;5070541;28;20234;-66
2021/07/07 18:55:16;;;;;;;1061.28;980.72;;;21.60;99.90;;;;;;5070399;28;20172;-66
2021/07/07 18:57:42;;;;;;;1082.63;995.88;;;21.40;99.90;;;;;;5070261;28;20164;-66
2021/07/07 19:00:10;;;;;;;1081.82;996.00;;;21.30;99.90;;;;;;5070098;28;20298;-66
2021/07/07 19:02:36;;;;;;;1057.68;976.85;;;21.30;99.90;;;;;;5070289;28;20202;-66
2021/07/07 19:05:03;;;;;;;1058.20;977.70;;;21.10;99.90;;;;;;5070309;28;20495;-66
2021/07/07 19:07:29;;;;;;;1074.22;991.25;;;21.00;99.90;;;;;;5070186;28;20517;-66
